CLMO2: North Canadian River

Data processed at Fri Jan 05 2018 23:24


All information presented herein is the property of the government of the United States of America and may be revised or deleted at any time without prior notice.
Dissemination of this information without the expressed written consent of the Public Affairs Office, Tulsa District U.S. Army Corps of Engineers is strictly prohibited.
These data are gathered electronically and, as presented, have not undergone any form of quality control. These data are not guaranteed to be valid or correct.
Go to home page.
Go to station list.

Upstream stations:

Downstream station:
Previous Day
Next Day
Current Day
    
SHEF ID:       CLMO2     North Canadian River near Calume
STATION TYPE:  

                STAGE  STAGE(2)  RIV-FLOW  WTR-TEMP   DIS-OXY        PH   CONDUCT  BAT-LOAD
                   ft        ft       cfs         F      mg/l        su   umho/cm      volt
              Ccp-Rev   Ccp-Rev   Ccp-Rev   Ccp-Rev   Ccp-Rev   Ccp-Rev   Ccp-Rev   Ccp-Rev
(US/Central)
01/03 00:00      3.68      3.76        26     30.40     13.89      8.10      1666     12.25
01/03 01:00      3.70      3.75        27     30.40     13.86      8.10      1672     12.17
01/03 02:00      3.75      3.74        30     30.40     13.83      8.10      1677     12.17
01/03 03:00      3.78      3.69        32     30.40     13.81      8.10      1682     12.17
01/03 04:00      3.76      3.64        31     30.40     13.77      8.10      1691     12.17
01/03 05:00      3.71      3.62        28     30.40     13.73      8.10      1699     12.17
01/03 06:00      3.67      3.55        26     30.40     13.69      8.00      1707     12.17
01/03 07:00      3.80      3.53        33     30.40     13.64      8.00      1710     12.09
01/03 08:00      3.92      3.53        39     30.42     13.60      8.00      1710     12.17
01/03 09:00      4.08      3.58        49     30.47     13.55      8.00      1706     12.17
01/03 10:00      4.08      3.89        49     30.60     13.49      8.00      1702     12.65
01/03 11:00      4.04      3.84        47     30.72     13.46      8.00      1692     13.21
01/03 12:00      3.89      3.93        38     30.83     13.44      8.00      1673     13.29
01/03 13:00      3.89      3.97        38     30.88     13.44      8.00      1664     13.37
01/03 14:00      3.87     33.84        36     30.87     13.47      8.00      1650     13.21
01/03 15:00      3.85      4.03        35     30.78     13.50      8.10      1637     12.97
01/03 16:00      3.80      3.96        33     30.60     13.59      8.10      1626     12.89
01/03 17:00      3.67      3.95        26     30.47     13.65      8.10      1621     12.89
01/03 18:00      3.38      3.85        14     30.42     13.69      8.10      1621     12.81
01/03 19:00      3.33      3.85        12     30.40     13.72      8.10      1622     12.73
01/03 20:00      3.39      3.95        14     30.40     13.73      8.10      1629     12.73
01/03 21:00      3.46     33.84        17     30.40     13.73      8.10      1637     12.65
01/03 22:00      3.50     33.84        18     30.40     13.72      8.10      1640     12.65
01/03 23:00      3.53     33.84        20     30.40     13.72      8.10      1644     12.65